Time;durP1;ratioP1;P1;durP2;ratioP2;P2;SDS_P1;SDS_P2;PMS_P1;PMS_P2;Temp;Humidity;BMP_temperature;BMP_pressure;BME280_temperature;BME280_humidity;BME280_pressure;Samples;Min_cycle;Max_cycle;Signal;HPM_P1;HPM_P2
2023/01/06 00:01:45;;;;;;;38.88;21.98;;;;;;;9.37;100.00;101520.63;10578942;28;20479;-73
2023/01/06 00:06:45;;;;;;;36.30;20.13;;;;;;;9.43;100.00;101530.72;10577604;27;20035;-74
2023/01/06 00:11:46;;;;;;;36.70;20.20;;;;;;;9.45;100.00;101514.84;10562292;27;20056;-74
2023/01/06 00:16:46;;;;;;;44.88;26.00;;;;;;;9.46;100.00;101512.91;10562193;27;20028;-74
2023/01/06 00:21:47;;;;;;;41.50;24.85;;;;;;;9.45;100.00;101514.84;10575133;27;20051;-74
2023/01/06 00:26:47;;;;;;;49.95;26.95;;;;;;;9.46;100.00;101505.50;10577926;27;20407;-74
2023/01/06 00:31:48;;;;;;;56.13;27.80;;;;;;;9.47;100.00;101520.94;10578107;27;20074;-73
2023/01/06 00:36:48;;;;;;;56.47;26.77;;;;;;;9.47;100.00;101512.69;10577414;27;20046;-73
2023/01/06 00:42:04;;;;;;;53.50;28.17;;;;;;;9.51;100.00;101510.31;10580560;28;20028;-73
2023/01/06 00:47:08;;;;;;;59.20;27.40;;;;;;;9.55;100.00;101510.69;10518493;28;20040;-73
2023/01/06 00:52:09;;;;;;;60.17;27.58;;;;;;;9.56;100.00;101507.72;10578079;28;20285;-73
2023/01/06 00:57:09;;;;;;;68.50;30.15;;;;;;;9.53;100.00;101504.56;10517664;27;20032;-73
2023/01/06 01:02:10;;;;;;;66.13;27.92;;;;;;;9.03;100.00;101410.34;10534216;28;20040;-73
2023/01/06 01:07:10;;;;;;;62.17;29.63;;;;;;;9.52;100.00;101492.75;10537879;28;20133;-73
2023/01/06 01:12:13;;;;;;;68.97;31.00;;;;;;;9.54;100.00;101482.34;10520154;28;20035;-73
2023/01/06 01:17:18;;;;;;;64.68;29.05;;;;;;;9.48;100.00;101473.13;10518212;28;20065;-73
2023/01/06 01:22:18;;;;;;;51.45;26.05;;;;;;;9.49;100.00;101474.81;10537670;28;20033;-73
2023/01/06 01:27:19;;;;;;;47.67;25.30;;;;;;;9.53;100.00;101460.59;10535200;28;20036;-73
2023/01/06 01:32:19;;;;;;;42.30;24.98;;;;;;;9.66;100.00;101474.16;10535446;28;20060;-72
2023/01/06 01:37:20;;;;;;;36.38;22.08;;;;;;;9.67;100.00;101475.81;10535391;28;20044;-72
2023/01/06 01:42:21;;;;;;;33.42;21.77;;;;;;;9.66;100.00;101469.50;10510281;28;20028;-73
2023/01/06 01:47:46;;;;;;;31.48;19.75;;;;;;;9.69;100.00;101473.69;10532899;28;20035;-72
2023/01/06 01:52:46;;;;;;;22.85;17.42;;;;;;;9.67;100.00;101467.59;10541646;28;20028;-73
2023/01/06 01:57:53;;;;;;;23.42;15.23;;;;;;;9.72;100.00;101464.97;10525482;28;20040;-73
2023/01/06 02:02:53;;;;;;;;;;;;;;;9.71;100.00;101466.03;10560720;28;20040;-73
2023/01/06 02:07:56;;;;;;;24.88;14.22;;;;;;;9.70;100.00;101447.88;10543092;28;19916;-73
2023/01/06 02:12:57;;;;;;;23.00;15.18;;;;;;;9.66;100.00;101438.44;10555847;27;20480;-73
2023/01/06 02:18:13;;;;;;;17.92;13.88;;;;;;;9.66;100.00;101424.69;10557554;27;20052;-73
2023/01/06 02:23:28;;;;;;;17.88;14.23;;;;;;;9.72;100.00;101434.75;10562327;27;20047;-73
2023/01/06 02:28:56;;;;;;;16.20;14.32;;;;;;;9.70;100.00;101429.47;10584168;27;20031;-73
2023/01/06 02:34:19;;;;;;;15.43;12.05;;;;;;;9.74;100.00;101410.59;10583376;27;20035;-73
2023/01/06 02:39:20;;;;;;;19.10;13.35;;;;;;;9.74;100.00;101410.59;10583338;27;20043;-73
2023/01/06 02:44:27;;;;;;;17.92;12.07;;;;;;;9.70;100.00;101399.22;10571224;27;20040;-73
2023/01/06 02:49:31;;;;;;;15.82;12.50;;;;;;;9.74;100.00;101393.28;10539016;28;20135;-73
2023/01/06 02:55:14;;;;;;;17.75;11.50;;;;;;;9.71;100.00;101375.31;10539564;28;20064;-73
2023/01/06 03:00:33;;;;;;;18.52;11.02;;;;;;;9.50;100.00;101339.03;10494969;28;20074;-73
2023/01/06 03:05:34;;;;;;;17.08;10.15;;;;;;;9.60;100.00;101341.22;10539062;28;20496;-73
2023/01/06 03:10:35;;;;;;;15.95;10.10;;;;;;;9.66;100.00;101350.44;10556212;28;20036;-73
2023/01/06 03:15:35;;;;;;;15.18;10.65;;;;;;;9.68;100.00;101351.88;10568588;27;20039;-73
2023/01/06 03:20:36;;;;;;;15.15;10.70;;;;;;;9.62;100.00;101319.00;10561721;28;20036;-73
2023/01/06 03:25:37;;;;;;;13.15;9.88;;;;;;;9.70;100.00;101333.22;10538736;28;20295;-72
2023/01/06 03:30:44;;;;;;;12.23;9.15;;;;;;;9.73;100.00;101331.09;10521732;28;20040;-73
2023/01/06 03:36:03;;;;;;;14.18;9.57;;;;;;;9.72;100.00;101319.25;10537998;28;20719;-73
2023/01/06 03:47:11;;;;;;;10.75;8.95;;;;;;;9.66;100.00;101309.22;10477864;27;20066;-73
2023/01/06 03:52:18;;;;;;;11.55;9.02;;;;;;;9.64;100.00;101300.38;10579912;28;20046;-73
2023/01/06 03:57:20;;;;;;;;;;;;;;;9.68;100.00;101290.56;10564168;27;20059;-72
2023/01/06 04:02:20;;;;;;;13.20;8.23;;;;;;;9.62;100.00;101275.03;10561282;28;19919;-73
2023/01/06 04:07:21;;;;;;;12.07;7.30;;;;;;;9.65;100.00;101264.41;10580637;27;20066;-73
2023/01/06 04:12:40;;;;;;;8.70;7.88;;;;;;;9.65;100.00;101252.53;10580440;27;20537;-73
2023/01/06 04:17:40;;;;;;;11.98;8.82;;;;;;;9.65;100.00;101258.03;10537029;28;20043;-73
2023/01/06 04:22:41;;;;;;;9.70;8.70;;;;;;;9.63;100.00;101255.56;10569375;27;20038;-74
2023/01/06 04:27:42;;;;;;;10.60;9.50;;;;;;;9.61;100.00;101249.44;10578085;27;20051;-74
2023/01/06 04:32:42;;;;;;;12.88;9.57;;;;;;;9.63;100.00;101239.06;10596226;27;20123;-73
2023/01/06 04:37:43;;;;;;;11.10;9.88;;;;;;;9.60;100.00;101228.53;10581695;27;20039;-72
2023/01/06 04:48:03;;;;;;;12.63;11.23;;;;;;;9.50;100.00;101228.28;10545391;28;20036;-72
2023/01/06 04:53:04;;;;;;;17.67;11.38;;;;;;;9.49;100.00;101229.38;10552589;28;20044;-73
2023/01/06 04:58:05;;;;;;;14.75;12.40;;;;;;;9.41;100.00;101202.25;10519750;28;20043;-73
2023/01/06 05:03:05;;;;;;;16.35;11.98;;;;;;;9.49;100.00;101202.72;10520340;28;20542;-73
2023/01/06 05:08:06;;;;;;;14.70;12.68;;;;;;;9.49;100.00;101188.97;10536921;28;20028;-73
2023/01/06 05:13:06;;;;;;;16.02;12.80;;;;;;;9.24;100.00;101134.25;10537786;28;20047;-72
2023/01/06 05:18:07;;;;;;;18.63;13.70;;;;;;;9.45;100.00;101182.28;10577280;28;20036;-72
2023/01/06 05:23:07;;;;;;;16.42;12.68;;;;;;;9.41;100.00;101178.34;10577337;28;20043;-73
2023/01/06 05:28:08;;;;;;;14.25;12.20;;;;;;;9.44;100.00;101164.09;10583253;27;20046;-71
2023/01/06 05:33:08;;;;;;;14.13;12.70;;;;;;;9.41;100.00;101170.09;10588625;27;20036;-73
2023/01/06 05:38:09;;;;;;;14.60;11.65;;;;;;;9.43;100.00;101172.63;10569579;27;20054;-72
2023/01/06 05:43:09;;;;;;;13.63;11.02;;;;;;;9.47;100.00;101158.16;10579111;27;20090;-73
2023/01/06 05:48:10;;;;;;;12.82;11.30;;;;;;;9.23;100.00;101118.00;10584640;27;20039;-74
2023/01/06 05:53:10;;;;;;;12.07;10.20;;;;;;;9.49;100.00;101150.50;10550778;27;20031;-72
2023/01/06 05:58:11;;;;;;;12.00;9.00;;;;;;;9.50;100.00;101146.66;10584516;27;20039;-72
2023/01/06 06:03:11;;;;;;;8.88;8.05;;;;;;;9.53;100.00;101144.50;10584332;27;20054;-72
2023/01/06 06:08:11;;;;;;;8.02;7.30;;;;;;;9.53;100.00;101141.75;10568076;27;20103;-72
2023/01/06 06:13:12;;;;;;;10.07;7.57;;;;;;;9.58;100.00;101128.13;10558732;28;20040;-72
2023/01/06 06:18:12;;;;;;;11.45;7.32;;;;;;;9.59;100.00;101116.06;10558699;28;20051;-72
2023/01/06 06:23:13;;;;;;;9.48;7.70;;;;;;;9.55;100.00;101114.88;10557626;28;20047;-74
2023/01/06 06:28:13;;;;;;;8.82;7.72;;;;;;;9.44;100.00;101111.88;10541591;28;20078;-74
2023/01/06 06:33:14;;;;;;;13.07;9.43;;;;;;;9.33;100.00;101123.75;10542187;28;20040;-73
2023/01/06 06:38:14;;;;;;;12.85;10.40;;;;;;;9.33;100.00;101125.66;10524351;28;20100;-73
2023/01/06 06:43:15;;;;;;;12.95;10.88;;;;;;;9.18;100.00;101109.66;10541878;28;20507;-73
2023/01/06 06:48:16;;;;;;;16.63;11.88;;;;;;;9.24;100.00;101126.03;10572683;27;20047;-74
2023/01/06 06:53:16;;;;;;;13.27;11.88;;;;;;;9.21;100.00;101117.41;10565473;27;20042;-73
2023/01/06 06:58:17;;;;;;;13.48;11.95;;;;;;;9.21;100.00;101111.91;10566178;27;20035;-75
2023/01/06 07:03:18;;;;;;;14.70;12.73;;;;;;;9.21;100.00;101128.41;10584762;27;20081;-69
2023/01/06 07:08:19;;;;;;;16.67;12.88;;;;;;;9.15;100.00;101115.63;10584322;27;20050;-75
2023/01/06 07:13:19;;;;;;;14.10;12.73;;;;;;;9.15;100.00;101121.13;10580599;27;20047;-75
2023/01/06 07:18:20;;;;;;;16.77;13.32;;;;;;;9.08;100.00;101100.09;10555130;28;20048;-76
2023/01/06 07:23:21;;;;;;;17.33;14.15;;;;;;;9.09;100.00;101134.75;10555884;28;20063;-73
2023/01/06 07:28:21;;;;;;;16.42;14.60;;;;;;;9.09;100.00;101128.41;10541322;28;20032;-73
2023/01/06 07:33:22;;;;;;;16.45;13.82;;;;;;;9.03;100.00;101130.19;10541797;28;20092;-73
2023/01/06 07:38:22;;;;;;;18.40;14.00;;;;;;;9.03;100.00;101154.91;10522128;28;20357;-73
2023/01/06 07:43:23;;;;;;;16.38;14.70;;;;;;;8.97;100.00;101147.63;10505006;28;20091;-75
2023/01/06 07:48:23;;;;;;;16.95;15.18;;;;;;;8.99;100.00;101172.09;10527006;28;20035;-75
2023/01/06 07:53:24;;;;;;;16.30;14.27;;;;;;;8.97;100.00;101174.22;10578350;27;20043;-75
2023/01/06 07:58:24;;;;;;;15.07;13.57;;;;;;;8.95;100.00;101193.72;10582721;27;20027;-73
2023/01/06 08:03:25;;;;;;;13.98;12.57;;;;;;;9.00;100.00;101206.72;10582425;28;20179;-75
2023/01/06 08:08:25;;;;;;;13.85;12.63;;;;;;;9.02;100.00;101221.06;10581405;27;20039;-74
2023/01/06 08:13:26;;;;;;;13.18;11.90;;;;;;;9.06;100.00;101227.75;10581785;28;20032;-75
2023/01/06 08:18:27;;;;;;;12.50;11.25;;;;;;;9.12;100.00;101236.97;10570367;27;20036;-75
2023/01/06 08:23:28;;;;;;;14.00;12.23;;;;;;;9.11;100.00;101251.75;10553431;28;20095;-76
2023/01/06 08:28:28;;;;;;;9.57;8.88;;;;;;;8.99;100.00;101260.81;10537339;28;20040;-74
2023/01/06 08:33:29;;;;;;;9.57;8.65;;;;;;;8.84;100.00;101277.69;10539009;28;20115;-74
2023/01/06 08:38:30;;;;;;;7.38;6.85;;;;;;;8.57;100.00;101270.91;10538655;28;20036;-73
2023/01/06 08:43:30;;;;;;;6.75;6.30;;;;;;;8.45;100.00;101281.81;10536693;28;20393;-75
2023/01/06 08:48:31;;;;;;;6.30;5.38;;;;;;;8.26;100.00;101295.50;10537484;28;20070;-74
2023/01/06 08:53:32;;;;;;;4.88;4.40;;;;;;;8.13;100.00;101289.34;10577045;28;20036;-74
2023/01/06 08:58:32;;;;;;;4.93;4.53;;;;;;;8.15;100.00;101306.44;10578601;28;20051;-67
2023/01/06 09:03:33;;;;;;;4.35;3.95;;;;;;;8.05;100.00;101320.66;10557579;28;20036;-74
2023/01/06 09:08:33;;;;;;;3.78;3.50;;;;;;;8.02;100.00;101326.56;10558936;27;20054;-73
2023/01/06 09:13:34;;;;;;;3.92;3.60;;;;;;;7.92;100.00;101331.72;10569746;27;20073;-73
2023/01/06 09:18:34;;;;;;;3.88;3.50;;;;;;;7.88;100.00;101334.94;10567946;27;20043;-73
2023/01/06 09:23:34;;;;;;;9.88;3.55;;;;;;;7.93;100.00;101358.09;10603306;27;20039;-74
2023/01/06 09:28:35;;;;;;;4.25;3.63;;;;;;;7.89;100.00;101371.41;10588539;27;20035;-73
2023/01/06 09:33:35;;;;;;;4.80;3.78;;;;;;;7.82;100.00;101390.66;10588150;27;20040;-73
2023/01/06 09:38:36;;;;;;;4.78;3.30;;;;;;;7.68;100.00;101386.34;10585432;27;20046;-73
2023/01/06 09:44:12;;;;;;;3.95;3.10;;;;;;;7.79;100.00;101404.84;10577854;27;20036;-72
2023/01/06 09:49:13;;;;;;;6.68;3.47;;;;;;;7.80;100.00;101422.94;10542681;28;20039;-72
2023/01/06 09:54:41;;;;;;;9.77;3.75;;;;;;;7.81;100.00;101427.38;10547772;28;20060;-73
2023/01/06 09:59:51;;;;;;;10.65;3.40;;;;;;;7.86;100.00;101427.53;10536997;27;20502;-73
2023/01/06 10:04:51;;;;;;;11.07;3.80;;;;;;;7.85;100.00;101425.00;10547067;27;20043;-72
2023/01/06 10:10:21;;;;;;;16.70;4.50;;;;;;;8.04;100.00;101436.88;10560585;27;20820;-73
2023/01/06 10:16:08;;;;;;;7.80;2.88;;;;;;;8.11;100.00;101445.91;10528572;28;20040;-73
2023/01/06 10:21:08;;;;;;;12.05;4.00;;;;;;;8.14;100.00;101450.09;10571097;27;20369;-73
2023/01/06 10:26:13;;;;;;;14.57;3.22;;;;;;;8.11;100.00;101456.88;10562458;27;20043;-73
2023/01/06 10:31:14;;;;;;;8.02;2.92;;;;;;;8.26;100.00;101451.88;10545508;27;20047;-72
2023/01/06 10:36:16;;;;;;;9.95;3.17;;;;;;;7.63;100.00;101339.59;10562820;27;20036;-73
2023/01/06 10:41:29;;;;;;;13.32;3.08;;;;;;;8.34;100.00;101453.50;10580550;27;20050;-72
2023/01/06 10:46:33;;;;;;;8.43;2.80;;;;;;;8.34;100.00;101461.72;10583175;27;20093;-72
2023/01/06 10:51:33;;;;;;;13.52;4.40;;;;;;;8.37;100.00;101461.28;10583041;27;20027;-72
2023/01/06 10:56:34;;;;;;;7.38;2.53;;;;;;;8.48;100.00;101462.47;10584297;27;20039;-72
2023/01/06 11:01:37;;;;;;;9.38;2.30;;;;;;;8.59;100.00;101461.72;10548203;27;20070;-72
2023/01/06 11:07:02;;;;;;;10.63;4.03;;;;;;;8.68;100.00;101454.88;10569319;28;20039;-73
2023/01/06 11:12:09;;;;;;;8.40;2.78;;;;;;;8.78;100.00;101469.97;10581603;28;20040;-74
2023/01/06 11:17:13;;;;;;;13.43;2.63;;;;;;;8.81;100.00;101455.81;10581349;27;20475;-73
2023/01/06 11:22:41;;;;;;;9.25;2.13;;;;;;;8.92;100.00;101449.53;10581029;27;20114;-74
2023/01/06 11:27:41;;;;;;;9.88;2.72;;;;;;;8.78;100.00;101456.25;10562968;28;20036;-73
2023/01/06 11:32:42;;;;;;;10.60;1.67;;;;;;;8.81;100.00;101450.31;10564001;28;20497;-73
2023/01/06 11:37:42;;;;;;;12.75;1.90;;;;;;;8.85;100.00;101443.31;10542730;28;20040;-74
2023/01/06 11:42:43;;;;;;;17.17;3.13;;;;;;;8.80;100.00;101445.88;10541550;28;20362;-73
2023/01/06 11:47:44;;;;;;;9.07;2.33;;;;;;;8.78;100.00;101434.28;10562544;28;20126;-73
2023/01/06 11:52:44;;;;;;;10.95;2.20;;;;;;;8.72;100.00;101429.72;10545006;28;20528;-68
2023/01/06 11:57:56;;;;;;;9.40;2.25;;;;;;;8.64;100.00;101434.44;10528209;28;20487;-74
2023/01/06 12:03:02;;;;;;;15.10;6.40;;;;;;;9.12;100.00;101435.56;10578278;28;20078;-74
2023/01/06 12:08:06;;;;;;;5.85;1.50;;;;;;;9.39;100.00;101422.31;10570975;28;20036;-75
2023/01/06 12:13:08;;;;;;;14.70;2.45;;;;;;;9.52;100.00;101439.69;10541572;27;20040;-75
2023/01/06 12:18:21;;;;;;;9.50;1.98;;;;;;;9.43;100.00;101426.28;10577804;27;20064;-77
2023/01/06 12:23:32;;;;;;;9.18;1.58;;;;;;;9.46;100.00;101425.78;10536538;28;20052;-75
2023/01/06 12:28:34;;;;;;;12.88;1.90;;;;;;;9.30;100.00;101420.94;10519152;28;20727;-74
2023/01/06 12:33:37;;;;;;;9.68;1.45;;;;;;;9.29;100.00;101433.03;10521551;27;20043;-75
2023/01/06 12:38:56;;;;;;;9.35;1.70;;;;;;;9.12;100.00;101434.75;10545889;27;20078;-75
2023/01/06 12:44:11;;;;;;;9.52;1.65;;;;;;;9.24;100.00;101449.34;10569403;28;20040;-74
2023/01/06 12:49:33;;;;;;;7.72;1.63;;;;;;;9.42;100.00;101451.22;10566450;28;20046;-74
2023/01/06 12:54:33;;;;;;;7.55;1.48;;;;;;;9.20;100.00;101446.25;10558855;28;20039;-74
2023/01/06 12:59:34;;;;;;;13.02;1.88;;;;;;;9.25;100.00;101446.38;10577338;28;20035;-74
2023/01/06 13:04:49;;;;;;;8.95;2.17;;;;;;;9.50;100.00;101450.91;10580525;28;20034;-73
2023/01/06 13:09:56;;;;;;;15.65;3.20;;;;;;;9.77;100.00;101439.53;10572985;28;20036;-73
2023/01/06 13:15:05;;;;;;;;;;;;;;;10.01;100.00;101438.50;10575831;28;20042;-73
2023/01/06 13:20:07;;;;;;;8.15;1.45;;;;;;;9.94;100.00;101440.50;10573043;28;19927;-74
2023/01/06 13:25:45;;;;;;;7.57;1.63;;;;;;;9.63;100.00;101448.00;10547705;28;20104;-73
2023/01/06 13:31:17;;;;;;;10.82;2.65;;;;;;;9.37;100.00;101457.44;10563780;28;20114;-74
2023/01/06 13:36:21;;;;;;;7.28;2.15;;;;;;;9.22;100.00;101462.47;10579241;28;20048;-73
2023/01/06 13:41:28;;;;;;;9.10;1.95;;;;;;;9.31;100.00;101466.59;10578206;27;20057;-73
2023/01/06 13:46:28;;;;;;;12.50;2.00;;;;;;;8.98;100.00;101473.34;10576127;27;20081;-73
2023/01/06 13:51:34;;;;;;;7.47;1.70;;;;;;;8.98;100.00;101469.75;10567124;27;20036;-73
2023/01/06 13:56:35;;;;;;;12.10;2.10;;;;;;;8.93;100.00;101462.22;10568200;27;20054;-72
2023/01/06 14:01:35;;;;;;;8.13;1.92;;;;;;;8.76;100.00;101474.84;10567353;28;20034;-72
2023/01/06 14:06:38;;;;;;;14.25;2.40;;;;;;;8.75;100.00;101481.44;10585091;27;20035;-71
2023/01/06 14:11:40;;;;;;;8.13;2.22;;;;;;;8.57;100.00;101476.75;10587907;27;20028;-72
2023/01/06 14:16:43;;;;;;;12.40;1.95;;;;;;;8.58;100.00;101492.13;10570197;27;20105;-72
2023/01/06 14:21:47;;;;;;;12.25;3.65;;;;;;;8.55;100.00;101476.13;10581799;27;20051;-73
2023/01/06 14:26:59;;;;;;;8.60;2.22;;;;;;;8.46;100.00;101487.41;10540377;27;20104;-73
2023/01/06 14:32:00;;;;;;;11.68;2.67;;;;;;;8.37;100.00;101493.34;10567005;27;20049;-73
2023/01/06 14:37:00;;;;;;;9.05;2.25;;;;;;;8.34;100.00;101472.69;10533822;28;20530;-73
2023/01/06 14:42:07;;;;;;;9.93;2.05;;;;;;;8.34;100.00;101477.34;10583800;27;20070;-72
2023/01/06 14:47:10;;;;;;;;;;;;;;;8.26;100.00;101493.03;10566361;27;20032;-72
2023/01/06 14:52:30;;;;;;;9.55;2.30;;;;;;;8.21;100.00;101487.38;10584925;27;20398;-73
2023/01/06 14:57:35;;;;;;;7.88;2.28;;;;;;;8.10;100.00;101477.13;10599534;27;20032;-73
2023/01/06 15:02:36;;;;;;;10.32;2.35;;;;;;;8.10;100.00;101488.09;10583799;27;20031;-73
2023/01/06 15:07:36;;;;;;;9.05;2.17;;;;;;;8.03;100.00;101504.59;10582967;27;20031;-73
2023/01/06 15:12:37;;;;;;;16.00;3.47;;;;;;;7.98;100.00;101487.13;10558304;28;20036;-73
2023/01/06 15:17:38;;;;;;;8.38;2.25;;;;;;;7.61;100.00;101451.34;10536437;28;20123;-73
2023/01/06 15:22:39;;;;;;;15.10;2.83;;;;;;;7.85;100.00;101508.13;10521847;28;20036;-72
2023/01/06 15:27:44;;;;;;;15.18;2.80;;;;;;;7.70;100.00;101493.84;10521317;28;20044;-72
2023/01/06 15:32:45;;;;;;;8.60;2.72;;;;;;;7.67;100.00;101514.31;10541716;28;20051;-72
2023/01/06 15:37:45;;;;;;;11.95;2.85;;;;;;;7.60;100.00;101518.16;10539912;28;20065;-73
2023/01/06 15:42:46;;;;;;;10.30;2.42;;;;;;;7.55;100.00;101507.84;10522059;28;20063;-73
2023/01/06 15:47:47;;;;;;;9.45;3.33;;;;;;;7.44;100.00;101512.13;10569261;27;20040;-72
2023/01/06 15:52:55;;;;;;;12.18;3.75;;;;;;;7.37;100.00;101516.78;10581670;27;20027;-72
2023/01/06 15:57:57;;;;;;;11.52;3.45;;;;;;;7.31;100.00;101512.16;10582524;27;20023;-73
2023/01/06 16:02:58;;;;;;;22.42;3.67;;;;;;;7.24;100.00;101522.31;10564443;27;20035;-72
2023/01/06 16:08:02;;;;;;;8.90;2.30;;;;;;;7.19;100.00;101530.34;10582257;27;20295;-71
2023/01/06 16:13:16;;;;;;;4.97;2.47;;;;;;;7.10;100.00;101531.63;10580157;27;20031;-73
2023/01/06 16:18:19;;;;;;;10.07;4.15;;;;;;;7.01;100.00;101542.81;10537288;28;20047;-71
2023/01/06 16:23:28;;;;;;;14.18;4.85;;;;;;;6.90;100.00;101532.50;10537017;28;20117;-72
2023/01/06 16:28:28;;;;;;;12.00;3.40;;;;;;;6.78;100.00;101540.56;10504038;28;20054;-71
2023/01/06 16:33:40;;;;;;;14.80;3.35;;;;;;;6.69;100.00;101530.03;10538807;28;20565;-71
2023/01/06 16:38:40;;;;;;;14.15;3.30;;;;;;;6.64;100.00;101538.88;10519679;28;20111;-71
2023/01/06 16:43:41;;;;;;;11.60;3.60;;;;;;;6.60;100.00;101549.41;10545025;28;20044;-71
2023/01/06 16:48:41;;;;;;;11.10;3.35;;;;;;;6.54;100.00;101549.41;10570185;28;20069;-71
2023/01/06 16:53:42;;;;;;;9.48;2.95;;;;;;;6.54;100.00;101549.41;10579984;28;20028;-72
2023/01/06 16:58:43;;;;;;;8.02;3.28;;;;;;;6.50;100.00;101553.63;10563684;28;20032;-71
2023/01/06 17:03:51;;;;;;;11.70;3.90;;;;;;;6.47;100.00;101554.91;10544141;28;20059;-69
2023/01/06 17:08:53;;;;;;;11.93;3.15;;;;;;;6.52;100.00;101562.47;10577544;28;20095;-71
2023/01/06 17:14:02;;;;;;;8.35;3.28;;;;;;;6.42;100.00;101550.03;10576885;28;20096;-72
2023/01/06 17:19:20;;;;;;;8.05;3.22;;;;;;;6.12;100.00;101492.19;10577709;28;20041;-72
2023/01/06 17:24:22;;;;;;;9.35;4.25;;;;;;;6.49;100.00;101541.84;10585337;27;20035;-71
2023/01/06 17:29:23;;;;;;;8.60;2.92;;;;;;;6.55;100.00;101541.00;10602551;27;20094;-71
2023/01/06 17:34:30;;;;;;;11.02;3.00;;;;;;;6.56;100.00;101541.84;10602010;27;20420;-71
2023/01/06 17:39:38;;;;;;;8.45;4.18;;;;;;;6.42;100.00;101530.88;10554373;27;20036;-72
2023/01/06 17:44:40;;;;;;;9.90;3.90;;;;;;;6.42;100.00;101557.41;10601328;27;20032;-72
2023/01/06 17:49:43;;;;;;;8.20;3.97;;;;;;;6.29;100.00;101551.94;10554276;27;20133;-71
2023/01/06 18:00:30;;;;;;;11.45;4.97;;;;;;;6.07;100.00;101568.50;10572737;27;20028;-71
2023/01/06 18:05:32;;;;;;;20.55;5.07;;;;;;;5.99;100.00;101546.84;10601018;27;20043;-71
2023/01/06 18:10:36;;;;;;;15.30;5.82;;;;;;;5.93;100.00;101548.47;10583968;27;20061;-72
2023/01/06 18:15:37;;;;;;;8.20;5.38;;;;;;;5.94;100.00;101554.78;10584608;27;20036;-71
2023/01/06 18:20:37;;;;;;;13.05;4.75;;;;;;;5.91;100.00;101556.03;10585783;27;20032;-71
2023/01/06 18:25:37;;;;;;;11.38;4.90;;;;;;;5.81;100.00;101552.88;10583226;27;20521;-72
2023/01/06 18:30:38;;;;;;;15.68;6.28;;;;;;;5.76;100.00;101550.75;10565310;27;20403;-72
2023/01/06 18:35:38;;;;;;;11.38;6.05;;;;;;;5.75;100.00;101553.72;10551258;27;20044;-72
2023/01/06 18:40:39;;;;;;;10.10;6.45;;;;;;;5.78;100.00;101547.81;10583019;27;20066;-72
2023/01/06 18:45:40;;;;;;;12.73;6.28;;;;;;;5.77;100.00;101544.25;10583144;27;20051;-71
2023/01/06 18:50:42;;;;;;;10.57;7.10;;;;;;;5.78;100.00;101540.44;10577453;28;20040;-72
2023/01/06 18:56:06;;;;;;;9.65;6.20;;;;;;;5.83;100.00;101548.88;10562083;27;20028;-72
2023/01/06 19:01:12;;;;;;;11.65;6.43;;;;;;;5.78;100.00;101545.91;10578538;27;20055;-72
2023/01/06 19:06:12;;;;;;;8.93;6.50;;;;;;;5.73;100.00;101534.78;10583923;27;20038;-72
2023/01/06 19:11:22;;;;;;;10.20;7.18;;;;;;;5.58;100.00;101529.47;10584515;27;20036;-71
2023/01/06 19:16:22;;;;;;;13.98;6.18;;;;;;;5.59;100.00;101563.94;10583491;27;20046;-71
2023/01/06 19:21:23;;;;;;;10.13;6.70;;;;;;;5.53;100.00;101559.28;10582882;27;20036;-71
2023/01/06 19:26:29;;;;;;;20.30;6.80;;;;;;;5.50;100.00;101547.91;10582694;27;20035;-71
2023/01/06 19:31:30;;;;;;;11.15;6.50;;;;;;;5.45;100.00;101545.81;10582025;27;20043;-72
2023/01/06 19:36:43;;;;;;;13.15;6.35;;;;;;;5.38;100.00;101540.31;10582651;27;20040;-72
2023/01/06 19:41:43;;;;;;;7.63;5.55;;;;;;;5.34;100.00;101541.78;10583209;27;20032;-72
2023/01/06 19:46:45;;;;;;;10.88;5.60;;;;;;;5.32;100.00;101535.69;10583287;27;20039;-71
2023/01/06 19:51:50;;;;;;;10.10;6.00;;;;;;;5.30;100.00;101526.84;10596664;27;20051;-72
2023/01/06 19:56:51;;;;;;;10.82;6.55;;;;;;;5.30;100.00;101532.31;10596320;27;20054;-72
2023/01/06 20:02:18;;;;;;;9.05;6.25;;;;;;;5.30;100.00;101534.22;10580983;27;20032;-71
2023/01/06 20:07:19;;;;;;;11.38;6.32;;;;;;;5.25;100.00;101532.09;10579796;27;20103;-71
2023/01/06 20:12:19;;;;;;;15.80;6.82;;;;;;;5.15;100.00;101534.34;10578975;27;20036;-71
2023/01/06 20:17:20;;;;;;;12.63;6.05;;;;;;;5.01;100.00;101517.88;10579082;27;20043;-72
2023/01/06 20:22:21;;;;;;;13.63;7.40;;;;;;;4.81;100.00;101523.22;10578790;27;20032;-72
2023/01/06 20:27:22;;;;;;;8.18;6.38;;;;;;;4.64;100.00;101517.25;10580000;27;20051;-71
2023/01/06 20:32:22;;;;;;;11.13;7.22;;;;;;;4.49;100.00;101521.97;10581459;28;20473;-72
2023/01/06 20:37:22;;;;;;;10.35;6.88;;;;;;;4.41;100.00;101528.41;10579117;27;20042;-72
2023/01/06 20:42:23;;;;;;;18.58;9.43;;;;;;;4.29;100.00;101534.59;10578159;28;20028;-71
2023/01/06 20:47:23;;;;;;;13.68;8.50;;;;;;;4.28;100.00;101527.44;10580190;28;20040;-72
2023/01/06 20:52:24;;;;;;;17.67;9.70;;;;;;;4.43;100.00;101517.31;10577667;28;20039;-72
2023/01/06 20:57:24;;;;;;;20.00;10.63;;;;;;;4.74;100.00;101521.50;10577509;28;20044;-72
2023/01/06 21:02:25;;;;;;;21.90;10.07;;;;;;;4.84;100.00;101533.75;10578355;28;20044;-72
2023/01/06 21:07:25;;;;;;;22.05;10.75;;;;;;;4.91;100.00;101519.31;10580558;28;20032;-70
2023/01/06 21:12:26;;;;;;;18.35;10.30;;;;;;;4.87;100.00;101532.50;10543782;28;20028;-72
2023/01/06 21:17:26;;;;;;;23.73;11.05;;;;;;;4.75;100.00;101534.09;10579420;28;20040;-72
2023/01/06 21:22:27;;;;;;;17.80;11.43;;;;;;;4.57;100.00;101524.53;10560126;28;20044;-71
2023/01/06 21:27:27;;;;;;;17.33;10.02;;;;;;;4.40;100.00;101520.41;10575222;28;20039;-72
2023/01/06 21:32:28;;;;;;;21.92;11.23;;;;;;;4.53;100.00;101509.63;10577434;28;20095;-71
2023/01/06 21:37:28;;;;;;;20.48;11.13;;;;;;;4.63;100.00;101515.56;10579042;28;20469;-72
2023/01/06 21:47:48;;;;;;;21.98;12.77;;;;;;;4.63;100.00;101510.13;10578799;28;20036;-72
2023/01/06 21:52:48;;;;;;;24.40;14.38;;;;;;;4.75;100.00;101523.19;10577576;28;20415;-71
2023/01/06 21:57:49;;;;;;;23.73;13.27;;;;;;;4.89;100.00;101513.22;10543107;28;20403;-70
2023/01/06 22:02:50;;;;;;;23.45;13.05;;;;;;;4.99;100.00;101492.69;10579522;28;20036;-71
2023/01/06 22:07:51;;;;;;;19.48;13.38;;;;;;;5.20;100.00;101493.63;10544439;27;20028;-72
2023/01/06 22:12:52;;;;;;;18.45;12.98;;;;;;;5.38;100.00;101502.09;10584186;27;20122;-72
2023/01/06 22:17:54;;;;;;;23.20;13.05;;;;;;;5.46;100.00;101491.00;10585489;27;20161;-72
2023/01/06 22:22:54;;;;;;;20.70;12.93;;;;;;;5.61;100.00;101500.91;10566234;27;20039;-71
2023/01/06 22:27:57;;;;;;;24.92;16.70;;;;;;;5.72;100.00;101492.09;10583733;27;20042;-72
2023/01/06 22:32:57;;;;;;;24.58;16.35;;;;;;;5.82;100.00;101480.78;10586041;27;20063;-71
2023/01/06 22:37:58;;;;;;;22.85;14.38;;;;;;;5.96;100.00;101498.91;10582556;27;20035;-71
2023/01/06 22:42:59;;;;;;;23.95;13.82;;;;;;;6.05;100.00;101492.16;10546673;27;20051;-72
2023/01/06 22:47:59;;;;;;;30.45;17.55;;;;;;;6.12;100.00;101500.41;10565285;27;20488;-72
2023/01/06 22:53:00;;;;;;;32.20;18.60;;;;;;;6.24;100.00;101496.00;10564668;27;20061;-72
2023/01/06 22:58:00;;;;;;;33.80;19.60;;;;;;;6.32;100.00;101485.88;10584205;27;20050;-67
2023/01/06 23:03:01;;;;;;;36.90;21.60;;;;;;;6.38;100.00;101480.41;10584882;27;20377;-72
2023/01/06 23:08:02;;;;;;;37.78;22.85;;;;;;;6.42;100.00;101480.81;10581742;27;20429;-72
2023/01/06 23:13:02;;;;;;;51.28;26.92;;;;;;;6.50;100.00;101480.59;10580909;28;20455;-72
2023/01/06 23:18:03;;;;;;;52.97;28.73;;;;;;;6.67;100.00;101479.09;10556666;27;20062;-72
2023/01/06 23:23:04;;;;;;;54.72;30.75;;;;;;;6.48;100.00;101414.31;10582635;27;20095;-72